Time;durP1;ratioP1;P1;durP2;ratioP2;P2;SDS_P1;SDS_P2;PMS_P1;PMS_P2;Temp;Humidity;BMP_temperature;BMP_pressure;BME280_temperature;BME280_humidity;BME280_pressure;Samples;Min_cycle;Max_cycle;Signal;HPM_P1;HPM_P2
2022/09/07 00:00:55;;;;;;;11.08;6.87;;;;;;;10.87;85.71;95015.70;1635448;87;20979;-54
2022/09/07 00:03:24;;;;;;;10.58;6.92;;;;;;;10.82;85.96;95016.23;1634150;87;21267;-54
2022/09/07 00:05:53;;;;;;;8.03;6.50;;;;;;;10.80;86.44;95021.41;1634441;87;21022;-53
2022/09/07 00:08:22;;;;;;;7.12;5.60;;;;;;;10.80;86.64;95021.41;1635270;87;21026;-54
2022/09/07 00:10:59;;;;;;;9.23;5.87;;;;;;;10.71;86.89;95015.65;1634223;87;21062;-53
2022/09/07 00:13:31;;;;;;;11.40;6.05;;;;;;;10.62;87.17;95016.91;1634144;87;21550;-53
2022/09/07 00:16:05;;;;;;;10.13;6.47;;;;;;;10.55;87.22;95022.64;1634377;87;21905;-55
2022/09/07 00:18:33;;;;;;;16.45;6.90;;;;;;;10.46;87.40;95011.50;1614607;87;21767;-54
2022/09/07 00:21:05;;;;;;;10.75;6.97;;;;;;;10.43;87.73;95011.02;1634141;87;21061;-54
2022/09/07 00:23:34;;;;;;;11.25;6.30;;;;;;;10.46;88.07;95010.91;1633069;87;20998;-53
2022/09/07 00:26:06;;;;;;;15.00;9.15;;;;;;;10.58;88.33;95016.25;1634166;87;21110;-53
2022/09/07 00:28:34;;;;;;;;;;;;;;;10.63;88.16;95006.84;1637061;87;21285;-53
2022/09/07 00:31:03;;;;;;;23.25;11.70;;;;;;;10.58;87.85;95005.24;1634252;87;20416;-54
2022/09/07 00:33:32;;;;;;;11.93;7.92;;;;;;;10.48;88.14;95000.83;1631234;87;21031;-54
2022/09/07 00:36:01;;;;;;;17.00;9.15;;;;;;;10.46;88.44;95001.87;1634234;87;21034;-54
2022/09/07 00:38:29;;;;;;;20.30;10.60;;;;;;;10.47;88.63;95004.80;1634162;87;21572;-53
2022/09/07 00:40:57;;;;;;;19.48;9.68;;;;;;;10.51;89.02;95005.47;1634386;87;21884;-54
2022/09/07 00:43:34;;;;;;;20.20;9.13;;;;;;;10.59;89.48;94998.53;1634106;87;21472;-54
2022/09/07 00:46:03;;;;;;;13.25;8.00;;;;;;;10.67;89.39;94998.45;1613972;87;21047;-53
2022/09/07 00:48:38;;;;;;;12.75;7.60;;;;;;;10.71;89.00;94989.51;1634213;87;21563;-54
2022/09/07 00:51:08;;;;;;;13.13;6.67;;;;;;;10.73;88.75;94991.97;1627199;87;20971;-54
2022/09/07 00:53:41;;;;;;;14.23;7.53;;;;;;;10.77;88.82;94998.91;1634144;87;21261;-54
2022/09/07 00:56:09;;;;;;;9.75;6.72;;;;;;;10.84;88.58;95000.04;1634443;87;21077;-53
2022/09/07 00:58:37;;;;;;;18.35;7.83;;;;;;;10.84;88.20;94990.41;1634241;87;20982;-54
2022/09/07 01:01:06;;;;;;;16.25;7.08;;;;;;;10.75;87.78;94996.42;1634330;87;20991;-53
2022/09/07 01:03:38;;;;;;;10.35;7.03;;;;;;;10.67;87.91;94986.86;1634259;87;21585;-54
2022/09/07 01:06:17;;;;;;;13.58;6.87;;;;;;;10.68;88.07;94986.27;1614087;87;21149;-54
2022/09/07 01:08:47;;;;;;;7.25;6.55;;;;;;;10.73;87.96;94982.95;1633996;87;21061;-54
2022/09/07 01:11:19;;;;;;;10.63;6.80;;;;;;;10.71;87.39;94979.25;1634473;87;21478;-53
2022/09/07 01:13:47;;;;;;;14.98;7.10;;;;;;;10.66;87.19;94985.91;1635495;87;21027;-54
2022/09/07 01:17:12;;;;;;;8.05;6.67;;;;;;;10.62;87.18;94988.02;1632373;86;21042;-53
2022/09/07 01:20:30;;;;;;;9.05;5.60;;;;;;;10.55;87.34;94982.75;1634130;87;21248;-54
2022/09/07 01:23:38;;;;;;;10.63;7.70;;;;;;;10.49;88.29;94977.64;1634071;87;21155;-53
2022/09/07 01:26:43;;;;;;;9.60;6.90;;;;;;;10.46;88.52;94979.88;1634230;87;21026;-54
2022/09/07 01:29:23;;;;;;;11.20;7.00;;;;;;;10.44;88.65;94975.42;1634109;87;21082;-53
2022/09/07 01:32:26;;;;;;;7.53;6.30;;;;;;;10.34;88.66;94971.79;1634321;87;21057;-53
2022/09/07 01:34:54;;;;;;;15.63;8.95;;;;;;;10.27;88.35;94969.86;1635750;87;21153;-53
2022/09/07 01:37:33;;;;;;;19.67;10.72;;;;;;;10.12;88.48;94967.37;1634054;87;21059;-54
2022/09/07 01:40:09;;;;;;;25.97;13.45;;;;;;;10.00;88.64;94970.86;1623291;87;21090;-53
2022/09/07 01:42:50;;;;;;;14.95;8.53;;;;;;;9.91;89.15;94959.73;1631085;87;20986;-53
2022/09/07 01:45:21;;;;;;;12.70;8.00;;;;;;;9.88;89.42;94963.36;1634457;87;21561;-54
2022/09/07 01:47:53;;;;;;;13.50;8.03;;;;;;;9.88;89.44;94963.36;1634073;87;21422;-53
2022/09/07 01:50:43;;;;;;;18.77;13.08;;;;;;;9.88;89.50;94967.48;1634304;87;21509;-54
2022/09/07 01:53:28;;;;;;;26.40;10.80;;;;;;;9.92;89.61;94961.27;1634029;87;21126;-54
2022/09/07 01:56:19;;;;;;;12.15;8.58;;;;;;;9.93;89.98;94963.59;1634420;87;21043;-53
2022/09/07 01:58:56;;;;;;;8.95;7.17;;;;;;;9.96;90.26;94964.70;1634151;87;20986;-54
2022/09/07 02:01:43;;;;;;;8.33;6.72;;;;;;;10.03;90.30;94957.05;1634125;87;21333;-54
2022/09/07 02:04:17;;;;;;;10.65;6.83;;;;;;;10.11;90.23;94948.74;1629176;87;20971;-52
2022/09/07 02:06:53;;;;;;;12.10;7.65;;;;;;;10.20;90.34;94947.47;1629940;87;20983;-52
2022/09/07 02:09:32;;;;;;;16.87;9.20;;;;;;;10.28;90.11;94932.31;1632256;87;21059;-53
2022/09/07 02:12:02;;;;;;;12.15;8.05;;;;;;;10.31;89.84;94936.92;1629454;88;21042;-53
2022/09/07 02:14:42;;;;;;;10.93;7.85;;;;;;;10.34;89.64;94926.42;1628949;88;21138;-54
2022/09/07 02:17:28;;;;;;;9.20;7.05;;;;;;;10.34;89.45;94916.03;1629279;87;21506;-53
2022/09/07 02:20:02;;;;;;;10.85;7.45;;;;;;;10.37;89.42;94917.90;1629874;88;20990;-54
2022/09/07 02:22:31;;;;;;;13.15;7.65;;;;;;;10.44;89.53;94932.79;1629673;88;21522;-54
2022/09/07 02:25:00;;;;;;;14.45;7.55;;;;;;;10.50;89.46;94924.92;1629907;88;21467;-54
2022/09/07 02:27:35;;;;;;;18.00;8.38;;;;;;;10.54;88.97;94922.06;1629455;88;21151;-54
2022/09/07 02:30:03;;;;;;;10.95;7.58;;;;;;;10.51;88.75;94929.83;1629615;88;21467;-54
2022/09/07 02:32:32;;;;;;;17.10;7.50;;;;;;;10.48;88.52;94918.31;1607875;88;21083;-54
2022/09/07 02:35:01;;;;;;;10.38;6.85;;;;;;;10.49;88.74;94917.13;1629705;87;21067;-54
2022/09/07 02:37:29;;;;;;;11.25;8.35;;;;;;;10.50;88.54;94915.91;1629545;88;21030;-54
2022/09/07 02:39:59;;;;;;;10.55;7.72;;;;;;;10.45;88.45;94917.83;1629530;88;21468;-53
2022/09/07 02:42:29;;;;;;;13.15;7.12;;;;;;;10.42;88.59;94922.84;1629633;88;20987;-53
2022/09/07 02:44:56;;;;;;;13.35;7.60;;;;;;;10.40;88.73;94919.77;1629737;88;21530;-54
2022/09/07 02:47:49;;;;;;;10.75;8.38;;;;;;;10.39;88.74;94912.73;1629490;88;20998;-53
2022/09/07 02:51:06;;;;;;;13.60;8.80;;;;;;;10.42;88.99;94914.59;1630157;87;21463;-53
2022/09/07 02:54:00;;;;;;;15.18;9.25;;;;;;;10.44;88.79;94906.07;1629438;88;21296;-53
2022/09/07 02:56:46;;;;;;;84.42;42.00;;;;;;;10.47;88.76;94905.77;1629338;88;21097;-54
2022/09/07 02:59:21;;;;;;;18.45;11.95;;;;;;;10.43;88.69;94906.50;1629554;88;20983;-53
2022/09/07 03:02:25;;;;;;;14.50;10.68;;;;;;;10.40;88.71;94908.77;1629445;88;21039;-53
2022/09/07 03:04:56;;;;;;;;;;;;;;;10.35;88.68;94912.08;1599110;88;21435;-54
2022/09/07 03:07:31;;;;;;;13.48;9.98;;;;;;;10.30;88.72;94909.86;1628189;88;21226;-54
2022/09/07 03:10:01;;;;;;;18.17;9.50;;;;;;;10.26;89.25;94905.08;1624364;87;21003;-54
2022/09/07 03:12:44;;;;;;;10.03;7.05;;;;;;;10.30;89.68;94899.64;1629883;88;21530;-54
2022/09/07 03:15:16;;;;;;;16.32;7.62;;;;;;;10.31;89.55;94899.05;1633637;87;21487;-54
2022/09/07 03:17:46;;;;;;;16.65;7.70;;;;;;;10.33;89.83;94896.63;1602319;89;20979;-53
2022/09/07 03:20:17;;;;;;;12.13;7.62;;;;;;;10.40;89.94;94901.30;1634052;87;21447;-53
2022/09/07 03:22:47;;;;;;;13.32;6.62;;;;;;;10.45;89.71;94890.32;1633974;87;21015;-53
2022/09/07 03:25:15;;;;;;;10.03;6.85;;;;;;;10.48;89.64;94894.94;1634228;87;21462;-53
2022/09/07 03:27:43;;;;;;;11.70;7.37;;;;;;;10.47;89.53;94888.67;1634371;87;21104;-54
2022/09/07 03:30:12;;;;;;;17.32;8.25;;;;;;;10.47;89.33;94887.89;1634083;87;21018;-52
2022/09/07 03:32:41;;;;;;;9.28;7.45;;;;;;;10.47;89.55;94890.64;1634516;87;21989;-52
2022/09/07 03:35:09;;;;;;;9.93;7.35;;;;;;;10.53;89.75;94889.65;1634186;87;21545;-53
2022/09/07 03:37:37;;;;;;;13.08;7.37;;;;;;;10.61;89.64;94895.09;1634386;87;21447;-54
2022/09/07 03:40:07;;;;;;;10.15;6.70;;;;;;;10.69;89.22;94900.52;1634200;87;21002;-53
2022/09/07 03:42:36;;;;;;;16.60;7.75;;;;;;;10.69;88.79;94898.38;1634470;87;21002;-54
2022/09/07 03:45:06;;;;;;;18.02;8.10;;;;;;;10.69;88.86;94901.13;1634275;87;21897;-53
2022/09/07 03:47:35;;;;;;;12.63;6.95;;;;;;;10.68;88.49;94894.84;1634752;87;20986;-53
2022/09/07 03:50:04;;;;;;;12.25;6.65;;;;;;;10.61;88.19;94888.81;1634139;87;21447;-53
2022/09/07 03:52:34;;;;;;;23.22;8.55;;;;;;;10.58;88.59;94887.73;1634421;87;21030;-53
2022/09/07 03:55:01;;;;;;;14.95;8.95;;;;;;;10.62;88.75;94887.59;1634269;87;21079;-54
2022/09/07 03:57:30;;;;;;;12.23;7.50;;;;;;;10.62;88.61;94884.25;1634523;87;21189;-54
2022/09/07 03:59:58;;;;;;;16.87;7.62;;;;;;;10.64;88.69;94884.58;1635355;87;21454;-54
2022/09/07 04:02:27;;;;;;;10.23;6.78;;;;;;;10.62;88.47;94882.09;1635765;87;21483;-54
2022/09/07 04:04:56;;;;;;;13.95;6.37;;;;;;;10.61;88.55;94889.59;1631444;87;21463;-54
2022/09/07 04:07:24;;;;;;;13.85;7.05;;;;;;;10.61;88.39;94892.34;1657974;86;21462;-53
2022/09/07 04:09:52;;;;;;;15.63;8.08;;;;;;;10.58;88.55;94890.48;1629946;88;21480;-53
2022/09/07 04:12:21;;;;;;;30.48;11.43;;;;;;;10.55;88.52;94901.59;1635390;87;21521;-55
2022/09/07 04:14:50;;;;;;;21.45;10.78;;;;;;;10.52;88.77;94896.36;1635217;87;21030;-53
2022/09/07 04:17:18;;;;;;;23.07;11.55;;;;;;;10.54;88.95;94896.69;1634201;87;21582;-53
2022/09/07 04:19:46;;;;;;;21.07;11.70;;;;;;;10.53;88.90;94897.15;1634183;87;20975;-54
2022/09/07 04:22:14;;;;;;;22.13;11.83;;;;;;;10.51;89.04;94895.45;1634474;87;21864;-54
2022/09/07 04:24:44;;;;;;;23.32;11.68;;;;;;;10.54;89.30;94905.56;1634354;87;21037;-53
2022/09/07 04:27:12;;;;;;;28.25;11.03;;;;;;;10.60;89.70;94900.44;1634235;87;21022;-55
2022/09/07 04:29:41;;;;;;;23.77;10.38;;;;;;;10.68;89.72;94896.22;1635557;87;21028;-55
2022/09/07 04:32:09;;;;;;;18.35;9.58;;;;;;;10.76;89.47;94899.67;1633901;87;21105;-53
2022/09/07 04:34:37;;;;;;;17.37;9.30;;;;;;;10.83;89.49;94893.92;1635582;87;21450;-55
2022/09/07 04:37:06;;;;;;;26.60;10.45;;;;;;;10.91;89.44;94902.70;1634413;87;21457;-57
2022/09/07 04:39:35;;;;;;;16.15;10.18;;;;;;;11.00;89.11;94895.92;1634160;87;20982;-54
2022/09/07 04:42:03;;;;;;;18.57;10.28;;;;;;;11.02;88.75;94892.87;1613929;87;21086;-54
2022/09/07 04:44:32;;;;;;;23.20;10.98;;;;;;;11.05;88.97;94892.00;1635540;87;20999;-54
2022/09/07 04:47:02;;;;;;;18.12;9.70;;;;;;;11.11;88.76;94892.17;1634112;87;21006;-55
2022/09/07 04:49:30;;;;;;;12.78;8.63;;;;;;;11.16;88.17;94894.37;1634146;87;21049;-54
2022/09/07 04:51:59;;;;;;;22.82;9.58;;;;;;;11.20;88.10;94898.52;1634317;87;21122;-55
2022/09/07 04:54:27;;;;;;;21.95;9.68;;;;;;;11.22;87.89;94898.09;1634060;87;20995;-55
2022/09/07 04:56:55;;;;;;;18.48;8.95;;;;;;;11.22;87.64;94897.49;1634325;87;21629;-54
2022/09/07 04:59:23;;;;;;;17.73;8.93;;;;;;;11.19;87.59;94895.61;1635329;87;21166;-53
2022/09/07 05:01:52;;;;;;;17.05;8.65;;;;;;;11.17;87.58;94884.90;1634332;87;21090;-53
2022/09/07 05:04:20;;;;;;;15.45;8.13;;;;;;;11.18;87.89;94887.19;1634091;87;21039;-58
2022/09/07 05:06:49;;;;;;;13.88;8.10;;;;;;;11.25;87.78;94886.95;1614208;87;21061;-55
2022/09/07 05:09:17;;;;;;;19.75;8.60;;;;;;;11.34;87.67;94886.25;1634176;87;21029;-55
2022/09/07 05:11:45;;;;;;;25.80;8.00;;;;;;;11.45;87.72;94881.11;1634105;87;21786;-55
2022/09/07 05:14:14;;;;;;;11.45;7.05;;;;;;;11.55;87.22;94888.98;1634005;87;20990;-55
2022/09/07 05:16:43;;;;;;;12.73;8.18;;;;;;;11.58;86.52;94884.01;1601974;89;21115;-54
2022/09/07 05:19:13;;;;;;;14.58;7.45;;;;;;;11.61;86.31;94885.86;1634326;87;21493;-55
2022/09/07 05:21:42;;;;;;;8.90;5.90;;;;;;;11.70;86.02;94889.28;1634292;87;21086;-54
2022/09/07 05:24:11;;;;;;;11.38;6.80;;;;;;;11.67;85.42;94885.42;1634060;87;21833;-55
2022/09/07 05:26:40;;;;;;;16.37;6.85;;;;;;;11.60;85.21;94887.08;1634311;87;21038;-54
2022/09/07 05:29:08;;;;;;;16.23;8.28;;;;;;;11.58;85.23;94884.01;1626940;87;21560;-56
2022/09/07 05:31:37;;;;;;;10.95;7.00;;;;;;;11.58;85.43;94884.01;1603862;88;21054;-55
2022/09/07 05:34:04;;;;;;;24.10;8.00;;;;;;;11.62;85.56;94883.27;1651063;84;21056;-56
2022/09/07 05:36:32;;;;;;;19.25;7.22;;;;;;;11.60;85.70;94876.06;1653783;84;22361;-57
2022/09/07 05:39:01;;;;;;;14.93;7.08;;;;;;;11.64;85.98;94880.82;1656702;85;21038;-57
2022/09/07 05:41:29;;;;;;;19.87;10.58;;;;;;;11.68;85.87;94886.97;1571855;88;21084;-57
2022/09/07 05:43:58;;;;;;;15.13;8.55;;;;;;;11.75;85.84;94880.42;1596428;87;21126;-57
2022/09/07 05:46:26;;;;;;;20.88;7.83;;;;;;;11.85;85.82;94881.39;1594241;88;21726;-57
2022/09/07 05:48:54;;;;;;;11.53;6.97;;;;;;;11.96;85.33;94887.28;1619044;86;23209;-58
2022/09/07 05:51:24;;;;;;;18.40;6.72;;;;;;;11.98;84.75;94881.30;1621723;86;21142;-59
2022/09/07 05:53:55;;;;;;;20.77;11.33;;;;;;;11.97;84.49;94880.55;1624391;86;21006;-58
2022/09/07 05:56:23;;;;;;;18.10;9.15;;;;;;;12.00;84.13;94881.02;1616511;86;21515;-61
2022/09/07 05:58:51;;;;;;;21.70;8.60;;;;;;;12.06;84.03;94875.69;1616908;86;21043;-63
2022/09/07 06:01:19;;;;;;;18.75;8.75;;;;;;;12.20;84.02;94877.86;1591951;88;21501;-58
2022/09/07 06:03:46;;;;;;;13.25;7.40;;;;;;;12.33;83.88;94873.02;1590878;86;21101;-56
2022/09/07 06:06:16;;;;;;;32.50;9.05;;;;;;;12.45;83.99;94885.31;1592547;87;21613;-55
2022/09/07 06:08:46;;;;;;;21.15;8.48;;;;;;;12.57;83.47;94887.95;1620258;86;21006;-57
2022/09/07 06:11:16;;;;;;;27.90;8.48;;;;;;;12.64;82.35;94887.68;1604710;87;21009;-54
2022/09/07 06:13:45;;;;;;;20.27;7.47;;;;;;;12.64;81.99;94888.28;1647383;84;21271;-57
2022/09/07 06:16:14;;;;;;;14.80;8.40;;;;;;;12.67;81.92;94888.74;1584700;87;21626;-55
2022/09/07 06:18:44;;;;;;;24.35;11.53;;;;;;;12.71;81.45;94890.77;1599936;87;21872;-58
2022/09/07 06:21:14;;;;;;;26.33;10.08;;;;;;;12.70;81.18;94887.85;1592791;87;21050;-58
2022/09/07 06:23:42;;;;;;;33.90;14.58;;;;;;;12.73;81.11;94899.36;1597922;87;21467;-56
2022/09/07 06:26:10;;;;;;;34.88;11.20;;;;;;;12.72;81.17;94901.96;1602361;87;21241;-55
2022/09/07 06:28:43;;;;;;;22.02;8.28;;;;;;;12.74;81.28;94898.12;1580533;87;21037;-58
2022/09/07 06:31:12;;;;;;;25.97;11.22;;;;;;;12.76;81.17;94890.94;1597311;87;21058;-53
2022/09/07 06:33:41;;;;;;;33.75;19.20;;;;;;;12.82;81.11;94891.86;1597275;87;21105;-55
2022/09/07 06:36:13;;;;;;;67.90;38.00;;;;;;;12.87;80.71;94891.88;1599215;87;21066;-56
2022/09/07 06:38:42;;;;;;;26.45;13.78;;;;;;;12.90;80.73;94893.72;1596030;87;21147;-58
2022/09/07 06:41:22;;;;;;;33.42;10.43;;;;;;;12.90;80.69;94888.19;1587432;87;21098;-59
2022/09/07 06:43:50;;;;;;;32.75;11.28;;;;;;;12.93;80.83;94887.30;1596251;87;21064;-57
2022/09/07 06:46:17;;;;;;;29.23;12.88;;;;;;;13.02;80.91;94899.72;1586902;87;21033;-57
2022/09/07 06:48:45;;;;;;;20.50;11.10;;;;;;;13.07;80.96;94894.36;1599435;87;21041;-56
2022/09/07 06:51:18;;;;;;;18.62;11.22;;;;;;;13.14;80.86;94900.20;1592440;87;21435;-56
2022/09/07 06:53:49;;;;;;;;;;;;;;;13.20;80.76;94889.47;1595766;87;20990;-57
2022/09/07 06:56:17;;;;;;;22.90;11.35;;;;;;;13.30;80.95;94894.38;1602239;87;20585;-58
2022/09/07 06:58:46;;;;;;;41.68;25.92;;;;;;;13.37;80.78;94892.68;1593806;87;20937;-56
2022/09/07 07:01:19;;;;;;;21.23;11.73;;;;;;;13.40;80.73;94902.20;1609535;86;21126;-57
2022/09/07 07:03:47;;;;;;;22.67;10.53;;;;;;;13.47;80.51;94908.05;1623575;85;21787;-56
2022/09/07 07:06:15;;;;;;;21.75;10.32;;;;;;;13.55;80.08;94905.89;1592171;87;21197;-56
2022/09/07 07:08:43;;;;;;;25.72;11.00;;;;;;;13.58;79.75;94910.49;1588809;87;21143;-57
2022/09/07 07:11:12;;;;;;;29.07;12.60;;;;;;;13.56;79.51;94903.88;1613043;86;21578;-57
2022/09/07 07:13:41;;;;;;;30.12;10.65;;;;;;;13.62;79.98;94908.96;1612760;86;21107;-58
2022/09/07 07:16:12;;;;;;;21.77;11.00;;;;;;;13.73;79.62;94907.86;1594491;87;21547;-55
2022/09/07 07:18:40;;;;;;;31.68;14.07;;;;;;;13.82;79.25;94900.94;1615675;86;21145;-58
2022/09/07 07:21:13;;;;;;;27.02;11.60;;;;;;;13.94;79.03;94895.83;1599744;87;21057;-55
2022/09/07 07:23:42;;;;;;;21.57;12.20;;;;;;;14.04;78.49;94898.73;1592320;86;21120;-57
2022/09/07 07:26:16;;;;;;;23.32;13.60;;;;;;;14.13;78.39;94901.45;1615719;87;21048;-55
2022/09/07 07:28:46;;;;;;;14.47;10.48;;;;;;;14.25;78.03;94897.77;1583348;87;21739;-55
2022/09/07 07:31:24;;;;;;;19.62;11.00;;;;;;;14.40;77.48;94897.26;1609618;86;21054;-57
2022/09/07 07:33:54;;;;;;;16.12;8.68;;;;;;;14.53;76.77;94895.20;1604816;86;21046;-56
2022/09/07 07:36:26;;;;;;;20.00;9.03;;;;;;;14.75;76.42;94896.30;1606673;86;21033;-56
2022/09/07 07:38:54;;;;;;;18.17;9.43;;;;;;;14.92;75.75;94891.89;1653872;84;21567;-57
2022/09/07 07:41:25;;;;;;;17.42;8.93;;;;;;;15.04;75.11;94888.13;1654626;85;21301;-57
2022/09/07 07:43:55;;;;;;;15.58;7.85;;;;;;;15.12;74.83;94887.30;1632539;86;22076;-56
2022/09/07 07:46:24;;;;;;;12.98;8.03;;;;;;;15.23;74.31;94885.38;1639462;84;21044;-57
2022/09/07 07:48:53;;;;;;;8.83;5.87;;;;;;;15.35;73.93;94884.40;1642248;84;21147;-58
2022/09/07 07:51:22;;;;;;;9.50;6.60;;;;;;;15.45;73.54;94883.85;1642532;85;21091;-58
2022/09/07 07:53:49;;;;;;;10.23;6.65;;;;;;;15.55;73.04;94889.45;1655245;85;21312;-57
2022/09/07 07:56:17;;;;;;;17.75;7.47;;;;;;;15.65;72.70;94880.42;1653657;85;21060;-57
2022/09/07 07:58:46;;;;;;;8.55;6.47;;;;;;;15.80;72.73;94880.61;1654863;86;21053;-58
2022/09/07 08:01:15;;;;;;;17.00;7.00;;;;;;;16.03;72.66;94888.07;1608861;86;21082;-55
2022/09/07 08:03:46;;;;;;;13.65;8.43;;;;;;;16.23;71.70;94886.77;1613485;86;21526;-63
2022/09/07 08:06:16;;;;;;;15.28;10.58;;;;;;;16.41;71.13;94881.03;1646414;85;21137;-58
2022/09/07 08:08:45;;;;;;;31.85;12.82;;;;;;;16.54;71.29;94885.03;1642461;84;21077;-58
2022/09/07 08:11:18;;;;;;;33.28;16.20;;;;;;;16.60;71.07;94889.28;1634524;86;21652;-57
2022/09/07 08:13:48;;;;;;;20.25;12.40;;;;;;;16.67;70.25;94891.05;1614461;86;21102;-58
2022/09/07 08:16:17;;;;;;;11.48;8.20;;;;;;;16.73;69.15;94888.35;1592347;88;21130;-56
2022/09/07 08:18:45;;;;;;;14.58;8.83;;;;;;;16.77;68.66;94889.66;1577016;87;21315;-59
2022/09/07 08:21:16;;;;;;;13.88;8.53;;;;;;;16.85;68.19;94885.24;1573548;89;21114;-56
2022/09/07 08:23:43;;;;;;;14.30;8.58;;;;;;;16.99;69.00;94880.88;1636283;84;21067;-57
2022/09/07 08:26:11;;;;;;;11.90;7.75;;;;;;;17.14;69.53;94878.81;1644695;84;22279;-57
2022/09/07 08:28:40;;;;;;;12.40;6.72;;;;;;;17.27;69.68;94872.28;1625486;84;21603;-56
2022/09/07 08:31:10;;;;;;;13.35;6.35;;;;;;;17.44;69.23;94875.42;1648742;84;21151;-57
2022/09/07 08:33:38;;;;;;;9.23;6.35;;;;;;;17.57;68.18;94879.23;1604460;87;21657;-55
2022/09/07 08:36:12;;;;;;;9.20;6.08;;;;;;;17.68;68.13;94880.75;1628087;86;21075;-56
2022/09/07 08:38:40;;;;;;;6.80;5.70;;;;;;;17.84;67.67;94873.22;1598922;87;21113;-56
2022/09/07 08:41:53;;;;;;;10.63;6.28;;;;;;;17.99;66.77;94874.62;1607128;88;21286;-57
2022/09/07 08:44:33;;;;;;;13.72;7.08;;;;;;;18.09;66.53;94873.83;1649988;84;21906;-57
2022/09/07 08:47:27;;;;;;;9.98;6.65;;;;;;;18.11;65.24;94865.75;1646570;85;21068;-59
2022/09/07 08:50:09;;;;;;;11.18;7.12;;;;;;;18.12;64.94;94863.87;1646705;84;21071;-59
2022/09/07 08:53:02;;;;;;;9.18;6.50;;;;;;;18.19;65.04;94854.45;1639016;84;21143;-58
2022/09/07 08:55:36;;;;;;;10.40;6.27;;;;;;;18.27;65.09;94853.41;1653278;84;20998;-59
2022/09/07 08:58:38;;;;;;;11.08;6.35;;;;;;;18.33;65.02;94851.42;1654809;84;21332;-56
2022/09/07 09:01:20;;;;;;;9.38;5.53;;;;;;;18.33;65.14;94846.63;1658831;84;21102;-58
2022/09/07 09:03:48;;;;;;;16.27;7.93;;;;;;;18.49;64.94;94836.86;1653061;84;21094;-59
2022/09/07 09:06:30;;;;;;;13.50;8.60;;;;;;;18.66;64.58;94835.69;1623013;85;21113;-56
2022/09/07 09:09:18;;;;;;;14.10;7.15;;;;;;;18.80;64.35;94829.84;1658302;84;22305;-56
2022/09/07 09:12:11;;;;;;;13.15;6.28;;;;;;;18.94;63.79;94820.52;1628440;86;23018;-59
2022/09/07 09:15:19;;;;;;;8.90;6.53;;;;;;;19.08;62.93;94818.19;1650734;84;21546;-57
2022/09/07 09:18:28;;;;;;;8.48;5.60;;;;;;;19.25;62.15;94814.88;1648463;84;21501;-55
2022/09/07 09:20:58;;;;;;;11.03;6.87;;;;;;;19.43;61.75;94810.25;1649083;84;21150;-56
2022/09/07 09:23:40;;;;;;;12.93;6.30;;;;;;;19.60;62.24;94797.84;1652435;84;21098;-56
2022/09/07 09:26:26;;;;;;;16.90;7.55;;;;;;;19.82;61.35;94792.95;1656595;84;21247;-57
2022/09/07 09:28:54;;;;;;;8.78;5.72;;;;;;;19.92;59.82;94794.99;1604582;86;21095;-58
2022/09/07 09:31:24;;;;;;;6.50;5.60;;;;;;;20.03;58.39;94784.49;1614055;86;21046;-56
2022/09/07 09:34:14;;;;;;;13.13;6.05;;;;;;;20.16;58.30;94776.50;1614106;86;21114;-58
2022/09/07 09:36:51;;;;;;;8.48;6.35;;;;;;;20.41;58.35;94777.51;1601049;86;21453;-58
2022/09/07 09:39:32;;;;;;;5.67;5.17;;;;;;;20.67;57.41;94777.34;1596816;87;21194;-57
2022/09/07 09:42:15;;;;;;;10.23;5.80;;;;;;;20.96;56.52;94777.42;1596958;87;21062;-57
2022/09/07 09:44:44;;;;;;;6.42;5.17;;;;;;;21.24;55.89;94785.05;1596949;87;21130;-55
2022/09/07 09:47:31;;;;;;;5.72;4.70;;;;;;;21.37;55.76;94779.66;1589593;87;21100;-57
2022/09/07 09:50:08;;;;;;;8.68;5.20;;;;;;;21.49;55.65;94775.54;1612111;86;21173;-58
2022/09/07 09:52:37;;;;;;;8.03;5.40;;;;;;;21.83;55.24;94767.09;1593300;85;21299;-57
2022/09/07 09:55:09;;;;;;;9.50;5.35;;;;;;;21.97;54.42;94765.33;1619339;85;21245;-58
2022/09/07 09:57:56;;;;;;;12.13;5.45;;;;;;;22.27;53.80;94765.47;1595939;87;21044;-58
2022/09/07 10:00:23;;;;;;;12.78;5.10;;;;;;;22.70;53.95;94760.75;1654916;84;21494;-55
2022/09/07 10:03:08;;;;;;;12.43;4.03;;;;;;;23.00;52.63;94764.27;1617625;86;21034;-56
2022/09/07 10:05:40;;;;;;;10.03;4.33;;;;;;;23.30;52.20;94750.16;1652601;85;21270;-56
2022/09/07 10:08:24;;;;;;;15.65;5.30;;;;;;;23.49;51.34;94748.89;1667854;84;21069;-57
2022/09/07 10:11:08;;;;;;;10.15;5.12;;;;;;;23.57;51.10;94752.59;1645419;86;21659;-57
2022/09/07 10:13:56;;;;;;;8.78;4.00;;;;;;;23.94;49.53;94744.17;1651917;84;22272;-57
2022/09/07 10:16:39;;;;;;;4.55;4.08;;;;;;;24.40;48.30;94736.00;1647568;85;21075;-57
2022/09/07 10:19:28;;;;;;;5.95;4.40;;;;;;;24.92;46.74;94732.55;1601544;88;21383;-56
2022/09/07 10:21:58;;;;;;;6.22;3.75;;;;;;;25.37;45.96;94731.78;1639717;85;21194;-58
2022/09/07 10:24:27;;;;;;;9.63;3.80;;;;;;;25.86;42.83;94738.43;1662669;85;21073;-58
2022/09/07 10:26:56;;;;;;;4.47;2.72;;;;;;;26.20;42.39;94743.50;1604268;87;21060;-58
2022/09/07 10:29:34;;;;;;;9.28;3.35;;;;;;;26.60;41.31;94732.78;1620496;87;21104;-58
2022/09/07 10:32:37;;;;;;;6.22;3.12;;;;;;;26.77;39.64;94735.28;1612753;87;21215;-58
2022/09/07 10:35:16;;;;;;;9.90;3.17;;;;;;;26.97;39.67;94734.48;1595413;87;21065;-57
2022/09/07 10:38:15;;;;;;;5.62;2.83;;;;;;;26.86;41.03;94734.03;1608942;86;21408;-56
2022/09/07 10:41:02;;;;;;;5.90;3.65;;;;;;;26.70;40.46;94733.81;1614148;87;22789;-56
2022/09/07 10:43:48;;;;;;;6.83;3.95;;;;;;;26.72;40.49;94730.55;1643449;84;21553;-58
2022/09/07 10:47:08;;;;;;;7.80;3.65;;;;;;;26.92;40.04;94728.34;1652342;85;21151;-58
2022/09/07 10:49:48;;;;;;;6.40;3.05;;;;;;;27.24;39.48;94723.77;1610225;87;21130;-59
2022/09/07 10:52:24;;;;;;;7.37;2.65;;;;;;;27.69;37.91;94707.00;1646249;86;21129;-57
2022/09/07 10:54:59;;;;;;;4.67;2.83;;;;;;;28.00;38.50;94708.00;1641950;86;21588;-59
2022/09/07 10:58:04;;;;;;;6.10;3.10;;;;;;;28.40;37.37;94707.62;1656705;86;20980;-58
2022/09/07 11:00:40;;;;;;;5.72;3.17;;;;;;;28.58;36.79;94707.91;1622681;85;21307;-60
2022/09/07 11:03:12;;;;;;;8.48;3.25;;;;;;;28.83;36.35;94720.16;1652394;84;21164;-60
2022/09/07 11:06:11;;;;;;;10.58;3.17;;;;;;;28.75;35.67;94715.92;1651057;85;21066;-58
2022/09/07 11:08:44;;;;;;;7.75;2.90;;;;;;;28.33;36.05;94715.42;1637713;86;21081;-57
2022/09/07 11:11:31;;;;;;;4.97;2.85;;;;;;;27.67;37.40;94712.46;1631551;86;21539;-61
2022/09/07 11:14:12;;;;;;;9.15;3.45;;;;;;;27.17;38.30;94707.50;1580813;89;21264;-58
2022/09/07 11:16:52;;;;;;;4.62;3.42;;;;;;;26.64;39.35;94713.45;1650897;84;21205;-62
2022/09/07 11:19:26;;;;;;;6.53;3.27;;;;;;;26.05;40.54;94705.27;1656052;84;21161;-63
2022/09/07 11:22:18;;;;;;;6.30;3.05;;;;;;;25.65;41.26;94712.97;1648741;85;21047;-59
2022/09/07 11:25:16;;;;;;;6.28;3.42;;;;;;;25.25;41.44;94706.55;1649729;85;21013;-60
2022/09/07 11:27:55;;;;;;;10.88;3.72;;;;;;;24.98;42.01;94702.22;1651830;84;21384;-63
2022/09/07 11:30:34;;;;;;;12.35;4.58;;;;;;;24.85;43.09;94697.99;1610727;86;21132;-62
2022/09/07 11:33:09;;;;;;;14.30;3.92;;;;;;;24.68;43.68;94700.36;1637296;85;21099;-60
2022/09/07 11:36:07;;;;;;;15.50;4.92;;;;;;;24.49;44.48;94698.26;1648862;84;21038;-58
2022/09/07 11:38:46;;;;;;;14.60;5.17;;;;;;;24.42;44.74;94696.09;1650614;84;21579;-56
2022/09/07 11:41:21;;;;;;;9.93;4.37;;;;;;;24.33;44.80;94693.69;1657415;84;21144;-64
2022/09/07 11:44:14;;;;;;;13.13;4.85;;;;;;;24.34;44.32;94692.38;1654269;85;21146;-60
2022/09/07 11:46:48;;;;;;;10.60;4.47;;;;;;;24.60;44.56;94695.28;1631616;86;21503;-59
2022/09/07 11:49:27;;;;;;;12.28;5.00;;;;;;;25.00;44.69;94698.21;1609780;87;21174;-58
2022/09/07 11:51:59;;;;;;;9.33;4.53;;;;;;;25.45;43.62;94688.98;1600792;87;21610;-60
2022/09/07 11:54:40;;;;;;;6.10;4.67;;;;;;;26.04;43.53;94684.02;1589782;87;22303;-58
2022/09/07 11:57:37;;;;;;;6.10;3.97;;;;;;;26.59;42.12;94684.69;1601483;87;21150;-59
2022/09/07 12:00:19;;;;;;;10.98;4.03;;;;;;;26.77;39.56;94680.87;1626182;86;21065;-58
2022/09/07 12:03:34;;;;;;;6.85;3.65;;;;;;;26.74;39.66;94681.34;1596040;87;21109;-57